createdAt,value
2023-02-06T00:01:45.566Z,103347.53
2023-02-06T00:04:12.282Z,103339.00
2023-02-06T00:06:38.871Z,103337.53
2023-02-06T00:09:05.406Z,103335.06
2023-02-06T00:11:31.862Z,103328.09
2023-02-06T00:13:58.413Z,103332.16
2023-02-06T00:16:26.363Z,103336.31
2023-02-06T00:18:53.440Z,103338.88
2023-02-06T00:21:21.944Z,103343.13
2023-02-06T00:23:49.052Z,103351.72
2023-02-06T00:26:15.500Z,103349.28
2023-02-06T00:28:41.919Z,103357.03
2023-02-06T00:31:08.920Z,103356.88
2023-02-06T00:33:35.866Z,103350.91
2023-02-06T00:36:02.294Z,103353.84
2023-02-06T00:38:28.904Z,103363.16
2023-02-06T00:40:55.320Z,103358.81
2023-02-06T00:43:22.171Z,103361.00
2023-02-06T00:45:55.326Z,103346.34
2023-02-06T00:48:22.174Z,103355.41
2023-02-06T00:50:49.588Z,103363.00
2023-02-06T00:53:16.015Z,103363.69
2023-02-06T00:55:42.522Z,103353.97
2023-02-06T00:58:09.214Z,103361.66
2023-02-06T01:00:35.720Z,103353.41
2023-02-06T01:03:02.245Z,103353.50
2023-02-06T01:05:28.813Z,103352.09
2023-02-06T01:07:55.416Z,103359.75
2023-02-06T01:10:21.868Z,103353.97
2023-02-06T01:12:48.366Z,103348.31
2023-02-06T01:15:14.844Z,103348.53
2023-02-06T01:17:41.525Z,103345.13
2023-02-06T01:20:09.331Z,103339.09
2023-02-06T01:22:36.169Z,103346.97
2023-02-06T01:25:03.434Z,103352.66
2023-02-06T01:27:29.960Z,103349.91
2023-02-06T01:29:56.570Z,103345.13
2023-02-06T01:32:23.062Z,103350.53
2023-02-06T01:34:49.495Z,103349.81
2023-02-06T01:37:16.005Z,103347.91
2023-02-06T01:39:42.503Z,103347.53
2023-02-06T01:42:10.954Z,103345.25
2023-02-06T01:44:37.846Z,103340.63
2023-02-06T01:47:04.297Z,103325.91
2023-02-06T01:49:35.072Z,103319.88
2023-02-06T01:52:13.234Z,103317.66
2023-02-06T01:54:40.294Z,103309.06
2023-02-06T01:57:08.588Z,103304.69
2023-02-06T01:59:35.724Z,103308.88
2023-02-06T02:02:03.323Z,103309.06
2023-02-06T02:04:32.018Z,103304.81
2023-02-06T02:07:18.729Z,103308.94
2023-02-06T02:09:45.274Z,103298.88
2023-02-06T02:12:12.120Z,103301.34
2023-02-06T02:14:39.733Z,103295.91
2023-02-06T02:17:21.533Z,103293.16
2023-02-06T02:19:47.970Z,103295.59
2023-02-06T02:22:32.785Z,103292.28
2023-02-06T02:25:18.092Z,103275.84
2023-02-06T02:27:56.888Z,103270.78
2023-02-06T02:30:29.448Z,103265.59
2023-02-06T02:33:14.433Z,103274.03
2023-02-06T02:35:48.096Z,103261.47
2023-02-06T02:38:31.402Z,103264.09
2023-02-06T02:41:15.625Z,103270.50
2023-02-06T02:43:45.124Z,103255.88
2023-02-06T02:46:19.879Z,103252.88
2023-02-06T02:48:48.420Z,103244.09
2023-02-06T02:53:58.405Z,103255.25
2023-02-06T02:56:25.718Z,103253.41
2023-02-06T02:58:55.155Z,103247.94
2023-02-06T03:01:25.872Z,103246.78
2023-02-06T03:03:54.498Z,103251.41
2023-02-06T03:06:35.102Z,103248.16
2023-02-06T03:09:01.536Z,103239.72
2023-02-06T03:11:28.199Z,103235.09
2023-02-06T03:13:57.878Z,103232.72
2023-02-06T03:16:31.309Z,103255.53
2023-02-06T03:19:15.262Z,103248.16
2023-02-06T03:21:42.896Z,103260.06
2023-02-06T03:24:12.361Z,103263.59
2023-02-06T03:26:40.205Z,103254.84
2023-02-06T03:29:08.778Z,103253.97
2023-02-06T03:31:45.091Z,103256.03
2023-02-06T03:34:11.588Z,103241.91
2023-02-06T03:36:38.218Z,103244.66
2023-02-06T03:39:04.657Z,103233.19
2023-02-06T03:41:33.580Z,103229.09
2023-02-06T03:44:01.577Z,103235.34
2023-02-06T03:46:29.249Z,103227.94
2023-02-06T03:48:58.328Z,103232.91
2023-02-06T03:51:31.022Z,103229.72
2023-02-06T03:53:59.902Z,103232.59
2023-02-06T03:56:33.137Z,103239.47
2023-02-06T03:59:00.019Z,103248.97
2023-02-06T04:01:26.939Z,103246.28
2023-02-06T04:03:53.766Z,103251.78
2023-02-06T04:06:20.535Z,103250.00
2023-02-06T04:08:47.028Z,103239.16
2023-02-06T04:11:13.475Z,103236.69
2023-02-06T04:13:39.894Z,103241.66
2023-02-06T04:16:06.404Z,103252.69
2023-02-06T04:18:32.906Z,103245.00
2023-02-06T04:21:06.772Z,103243.94
2023-02-06T04:23:33.695Z,103237.00
2023-02-06T04:26:00.229Z,103239.22
2023-02-06T04:28:26.699Z,103243.66
2023-02-06T04:30:53.268Z,103229.69
2023-02-06T04:33:19.750Z,103227.38
2023-02-06T04:35:47.035Z,103232.50
2023-02-06T04:38:13.535Z,103223.28
2023-02-06T04:40:40.023Z,103214.06
2023-02-06T04:43:06.444Z,103208.69
2023-02-06T04:45:32.915Z,103209.31
2023-02-06T04:47:59.651Z,103217.47
2023-02-06T04:50:29.352Z,103207.84
2023-02-06T04:52:55.790Z,103198.91
2023-02-06T04:55:22.812Z,103201.06
2023-02-06T04:57:49.386Z,103209.38
2023-02-06T05:00:16.080Z,103206.59
2023-02-06T05:02:42.643Z,103204.31
2023-02-06T05:05:09.617Z,103220.19
2023-02-06T05:07:36.249Z,103218.09
2023-02-06T05:10:02.783Z,103201.59
2023-02-06T05:12:29.270Z,103201.53
2023-02-06T05:14:56.015Z,103200.78
2023-02-06T05:17:22.524Z,103201.22
2023-02-06T05:19:49.070Z,103199.41
2023-02-06T05:22:15.560Z,103206.50
2023-02-06T05:24:42.016Z,103208.22
2023-02-06T05:27:08.620Z,103209.81
2023-02-06T05:29:35.088Z,103213.50
2023-02-06T05:32:01.560Z,103196.22
2023-02-06T05:34:28.064Z,103192.22
2023-02-06T05:36:54.514Z,103185.16
2023-02-06T05:39:20.993Z,103189.72
2023-02-06T05:41:47.484Z,103199.88
2023-02-06T05:44:13.920Z,103206.47
2023-02-06T05:46:40.451Z,103200.59
2023-02-06T05:49:07.041Z,103205.78
2023-02-06T05:51:33.606Z,103201.34
2023-02-06T05:54:00.073Z,103188.94
2023-02-06T05:56:26.568Z,103200.66
2023-02-06T05:58:53.027Z,103207.56
2023-02-06T06:01:19.524Z,103208.59
2023-02-06T06:03:46.017Z,103206.78
2023-02-06T06:06:12.642Z,103202.81
2023-02-06T06:08:39.382Z,103206.28
2023-02-06T06:11:07.359Z,103214.25
2023-02-06T06:13:33.926Z,103222.09
2023-02-06T06:16:00.460Z,103219.97
2023-02-06T06:18:27.044Z,103225.38
2023-02-06T06:20:53.548Z,103229.47
2023-02-06T06:23:20.169Z,103240.44
2023-02-06T06:25:47.288Z,103248.16
2023-02-06T06:28:13.884Z,103242.56
2023-02-06T06:30:40.451Z,103240.00
2023-02-06T06:33:07.006Z,103241.13
2023-02-06T06:35:33.610Z,103239.09
2023-02-06T06:38:00.167Z,103240.25
2023-02-06T06:40:26.658Z,103232.66
2023-02-06T06:42:53.220Z,103237.84
2023-02-06T06:45:19.705Z,103232.81
2023-02-06T06:47:46.160Z,103231.00
2023-02-06T06:50:12.661Z,103230.34
2023-02-06T06:52:39.192Z,103232.13
2023-02-06T06:55:05.867Z,103227.78
2023-02-06T06:57:32.617Z,103220.03
2023-02-06T06:59:59.183Z,103217.13
2023-02-06T07:02:25.795Z,103214.72
2023-02-06T07:04:52.217Z,103216.56
2023-02-06T07:07:18.793Z,103211.19
2023-02-06T07:09:45.228Z,103211.66
2023-02-06T07:12:11.655Z,103217.78
2023-02-06T07:14:39.663Z,103223.91
2023-02-06T07:17:06.092Z,103223.91
2023-02-06T07:19:32.598Z,103221.19
2023-02-06T07:21:59.030Z,103216.25
2023-02-06T07:24:25.472Z,103225.38
2023-02-06T07:26:52.976Z,103219.69
2023-02-06T07:29:19.534Z,103219.59
2023-02-06T07:31:46.054Z,103231.91
2023-02-06T07:34:12.678Z,103234.38
2023-02-06T07:36:39.139Z,103244.09
2023-02-06T07:39:05.658Z,103250.22
2023-02-06T07:41:32.139Z,103247.13
2023-02-06T07:43:58.632Z,103248.94
2023-02-06T07:46:25.320Z,103249.22
2023-02-06T07:48:51.995Z,103250.56
2023-02-06T07:51:18.599Z,103241.16
2023-02-06T07:53:45.029Z,103249.41
2023-02-06T07:56:15.775Z,103242.59
2023-02-06T07:58:42.562Z,103234.00
2023-02-06T08:01:09.438Z,103233.22
2023-02-06T08:03:35.962Z,103227.38
2023-02-06T08:06:07.627Z,103234.63
2023-02-06T08:08:34.109Z,103236.66
2023-02-06T08:11:03.985Z,103228.06
2023-02-06T08:13:30.423Z,103222.09
2023-02-06T08:15:56.873Z,103222.34
2023-02-06T08:18:23.560Z,103229.22
2023-02-06T08:20:50.154Z,103231.44
2023-02-06T08:23:16.584Z,103230.50
2023-02-06T08:25:43.017Z,103228.84
2023-02-06T08:28:10.164Z,103226.16
2023-02-06T08:30:37.067Z,103229.66
2023-02-06T08:33:03.742Z,103229.72
2023-02-06T08:35:30.185Z,103231.97
2023-02-06T08:37:56.622Z,103234.94
2023-02-06T08:40:23.242Z,103233.19
2023-02-06T08:42:51.093Z,103228.41
2023-02-06T08:45:17.759Z,103228.78
2023-02-06T08:47:44.203Z,103228.53
2023-02-06T08:50:10.657Z,103222.13
2023-02-06T08:52:37.122Z,103222.25
2023-02-06T08:55:03.567Z,103228.38
2023-02-06T08:57:30.076Z,103227.91
2023-02-06T08:59:56.782Z,103232.91
2023-02-06T09:02:23.367Z,103225.22
2023-02-06T09:04:49.899Z,103218.31
2023-02-06T09:07:17.328Z,103227.19
2023-02-06T09:09:43.899Z,103224.44
2023-02-06T09:12:11.951Z,103224.41
2023-02-06T09:14:38.584Z,103229.06
2023-02-06T09:17:05.226Z,103224.00
2023-02-06T09:19:31.660Z,103233.81
2023-02-06T09:21:58.143Z,103236.22
2023-02-06T09:24:25.413Z,103230.78
2023-02-06T09:26:59.765Z,103229.53
2023-02-06T09:29:28.969Z,103249.06
2023-02-06T09:31:57.435Z,103254.84
2023-02-06T09:34:25.840Z,103261.19
2023-02-06T09:36:54.600Z,103259.44
2023-02-06T09:39:21.431Z,103264.41
2023-02-06T09:41:51.055Z,103273.69
2023-02-06T09:44:32.541Z,103264.22
2023-02-06T09:47:02.955Z,103278.16
2023-02-06T09:49:35.712Z,103277.91
2023-02-06T09:52:15.379Z,103274.44
2023-02-06T09:54:51.825Z,103266.03
2023-02-06T09:57:31.381Z,103263.28
2023-02-06T10:00:11.230Z,103252.19
2023-02-06T10:02:46.881Z,103255.06
2023-02-06T10:05:32.313Z,103243.88
2023-02-06T10:08:14.418Z,103256.84
2023-02-06T10:10:45.053Z,103263.03
2023-02-06T10:13:11.611Z,103266.78
2023-02-06T10:15:48.006Z,103268.63
2023-02-06T10:18:16.565Z,103273.50
2023-02-06T10:20:53.774Z,103277.31
2023-02-06T10:23:36.469Z,103285.03
2023-02-06T10:26:18.108Z,103292.94
2023-02-06T10:28:47.342Z,103298.88
2023-02-06T10:31:26.109Z,103288.09
2023-02-06T10:33:52.589Z,103283.06
2023-02-06T10:36:37.126Z,103276.69
2023-02-06T10:39:23.389Z,103273.28
2023-02-06T10:41:52.822Z,103273.44
2023-02-06T10:44:23.156Z,103260.72
2023-02-06T10:46:51.011Z,103266.16
2023-02-06T10:49:22.010Z,103263.50
2023-02-06T10:51:53.470Z,103259.47
2023-02-06T10:54:36.711Z,103249.97
2023-02-06T10:57:05.005Z,103253.63
2023-02-06T10:59:32.017Z,103252.63
2023-02-06T11:02:08.601Z,103260.03
2023-02-06T11:04:39.120Z,103278.13
2023-02-06T11:07:15.117Z,103274.59
2023-02-06T11:09:41.657Z,103266.72
2023-02-06T11:12:20.286Z,103262.41
2023-02-06T11:14:47.035Z,103282.84
2023-02-06T11:17:21.591Z,103288.56
2023-02-06T11:19:48.719Z,103282.22
2023-02-06T11:22:16.623Z,103277.78
2023-02-06T11:25:00.358Z,103278.00
2023-02-06T11:27:27.721Z,103289.06
2023-02-06T11:29:54.388Z,103276.22
2023-02-06T11:32:35.956Z,103278.09
2023-02-06T11:35:07.703Z,103281.06
2023-02-06T11:37:34.195Z,103278.59
2023-02-06T11:40:14.194Z,103291.75
2023-02-06T11:42:40.730Z,103299.25
2023-02-06T11:45:28.477Z,103286.84
2023-02-06T11:47:55.082Z,103292.84
2023-02-06T11:50:26.899Z,103289.44
2023-02-06T11:52:58.548Z,103294.59
2023-02-06T11:55:25.053Z,103292.09
2023-02-06T11:58:21.140Z,103285.84
2023-02-06T12:00:54.710Z,103298.00
2023-02-06T12:03:35.830Z,103286.56
2023-02-06T12:06:08.653Z,103290.19
2023-02-06T12:08:49.048Z,103299.66
2023-02-06T12:11:23.868Z,103293.97
2023-02-06T12:13:56.553Z,103280.81
2023-02-06T12:16:25.273Z,103295.97
2023-02-06T12:18:54.242Z,103299.41
2023-02-06T12:21:24.578Z,103301.66
2023-02-06T12:24:00.242Z,103295.31
2023-02-06T12:26:30.626Z,103295.47
2023-02-06T12:29:03.112Z,103306.38
2023-02-06T12:31:50.349Z,103297.56
2023-02-06T12:34:49.444Z,103307.44
2023-02-06T12:37:23.078Z,103313.72
2023-02-06T12:39:51.689Z,103315.25
2023-02-06T12:42:18.277Z,103315.22
2023-02-06T12:44:50.988Z,103317.97
2023-02-06T12:47:25.979Z,103316.63
2023-02-06T12:50:11.205Z,103322.69
2023-02-06T12:52:53.817Z,103329.72
2023-02-06T12:55:43.404Z,103332.25
2023-02-06T12:58:28.182Z,103328.28
2023-02-06T13:00:57.745Z,103332.56
2023-02-06T13:03:32.510Z,103336.06
2023-02-06T13:06:11.035Z,103330.34
2023-02-06T13:08:43.577Z,103330.28
2023-02-06T13:11:15.586Z,103332.28
2023-02-06T13:13:42.439Z,103327.94
2023-02-06T13:16:09.479Z,103340.03
2023-02-06T13:18:41.931Z,103338.41
2023-02-06T13:21:17.551Z,103343.56
2023-02-06T13:24:10.457Z,103343.66
2023-02-06T13:27:00.165Z,103344.19
2023-02-06T13:29:26.676Z,103345.94
2023-02-06T13:32:22.774Z,103346.81
2023-02-06T13:34:49.244Z,103345.81
2023-02-06T13:37:38.953Z,103349.16
2023-02-06T13:40:21.098Z,103343.75
2023-02-06T13:43:06.313Z,103351.50
2023-02-06T13:45:32.934Z,103360.13
2023-02-06T13:48:02.454Z,103350.03
2023-02-06T13:50:35.031Z,103351.00
2023-02-06T13:53:09.773Z,103354.28
2023-02-06T13:55:47.879Z,103358.75
2023-02-06T13:58:26.684Z,103360.41
2023-02-06T14:00:54.805Z,103358.38
2023-02-06T14:03:28.441Z,103362.72
2023-02-06T14:06:05.918Z,103366.31
2023-02-06T14:08:51.132Z,103380.28
2023-02-06T14:11:36.166Z,103375.47
2023-02-06T14:14:18.039Z,103386.88
2023-02-06T14:16:53.696Z,103379.00
2023-02-06T14:19:25.591Z,103379.59
2023-02-06T14:22:10.580Z,103378.41
2023-02-06T14:24:43.116Z,103383.59
2023-02-06T14:27:18.511Z,103387.88
2023-02-06T14:30:03.810Z,103386.38
2023-02-06T14:32:42.521Z,103389.03
2023-02-06T14:35:26.003Z,103387.78
2023-02-06T14:37:55.560Z,103394.81
2023-02-06T14:40:29.993Z,103404.22
2023-02-06T14:43:01.425Z,103387.56
2023-02-06T14:45:41.051Z,103400.50
2023-02-06T14:48:17.161Z,103409.13
2023-02-06T14:50:47.513Z,103417.44
2023-02-06T14:53:17.040Z,103420.78
2023-02-06T14:55:47.471Z,103423.22
2023-02-06T14:58:28.296Z,103430.00
2023-02-06T15:00:55.806Z,103425.84
2023-02-06T15:03:24.656Z,103433.75
2023-02-06T15:06:02.146Z,103437.69
2023-02-06T15:08:28.651Z,103440.22
2023-02-06T15:11:02.365Z,103436.50
2023-02-06T15:13:34.949Z,103432.91
2023-02-06T15:16:08.672Z,103436.19
2023-02-06T15:18:36.069Z,103437.84
2023-02-06T15:21:07.033Z,103443.63
2023-02-06T15:23:45.835Z,103446.81
2023-02-06T15:26:32.630Z,103456.34
2023-02-06T15:29:00.721Z,103457.06
2023-02-06T15:31:27.759Z,103456.94
2023-02-06T15:33:55.547Z,103451.69
2023-02-06T15:36:29.500Z,103469.56
2023-02-06T15:38:56.410Z,103462.41
2023-02-06T15:41:23.432Z,103473.47
2023-02-06T15:43:50.942Z,103470.72
2023-02-06T15:46:17.563Z,103466.28
2023-02-06T15:48:46.864Z,103465.16
2023-02-06T15:51:25.161Z,103479.69
2023-02-06T15:53:53.121Z,103475.31
2023-02-06T15:56:21.893Z,103488.78
2023-02-06T15:58:49.550Z,103475.03
2023-02-06T16:01:18.545Z,103484.44
2023-02-06T16:03:45.572Z,103485.13
2023-02-06T16:06:15.745Z,103487.47
2023-02-06T16:08:48.085Z,103489.78
2023-02-06T16:11:33.582Z,103501.81
2023-02-06T16:14:00.268Z,103498.69
2023-02-06T16:16:27.608Z,103495.00
2023-02-06T16:22:27.660Z,103501.38
2023-02-06T16:25:13.378Z,103497.59
2023-02-06T16:27:45.524Z,103500.59
2023-02-06T16:30:23.694Z,103499.59
2023-02-06T16:32:51.526Z,103502.00
2023-02-06T16:35:18.228Z,103496.72
2023-02-06T16:37:45.438Z,103491.53
2023-02-06T16:40:12.140Z,103501.66
2023-02-06T16:42:46.655Z,103508.19
2023-02-06T16:45:19.109Z,103509.75
2023-02-06T16:47:46.160Z,103513.97
2023-02-06T16:50:13.337Z,103530.22
2023-02-06T16:53:00.656Z,103530.16
2023-02-06T16:55:28.957Z,103524.22
2023-02-06T16:57:59.537Z,103523.16
2023-02-06T17:00:31.249Z,103526.47
2023-02-06T17:02:58.895Z,103525.44
2023-02-06T17:05:28.234Z,103530.84
2023-02-06T17:07:55.486Z,103531.47
2023-02-06T17:10:24.875Z,103527.91
2023-02-06T17:12:51.638Z,103527.59
2023-02-06T17:15:19.153Z,103527.44
2023-02-06T17:17:46.109Z,103541.84
2023-02-06T17:20:45.120Z,103542.53
2023-02-06T17:23:11.935Z,103549.41
2023-02-06T17:25:40.539Z,103551.81
2023-02-06T17:28:09.079Z,103549.06
2023-02-06T17:30:37.887Z,103548.16
2023-02-06T17:33:06.307Z,103552.06
2023-02-06T17:35:36.681Z,103550.28
2023-02-06T17:38:07.969Z,103551.81
2023-02-06T17:40:36.620Z,103557.78
2023-02-06T17:43:04.722Z,103557.53
2023-02-06T17:45:32.321Z,103546.38
2023-02-06T17:47:59.297Z,103546.44
2023-02-06T17:50:27.668Z,103550.69
2023-02-06T17:52:55.826Z,103560.47
2023-02-06T17:55:23.966Z,103565.59
2023-02-06T17:57:51.502Z,103555.22
2023-02-06T18:00:20.371Z,103562.03
2023-02-06T18:02:47.066Z,103565.38
2023-02-06T18:05:13.703Z,103556.72
2023-02-06T18:07:41.144Z,103564.28
2023-02-06T18:10:09.245Z,103567.50
2023-02-06T18:12:35.960Z,103561.25
2023-02-06T18:15:03.922Z,103556.78
2023-02-06T18:17:31.171Z,103553.06
2023-02-06T18:19:57.792Z,103556.41
2023-02-06T18:22:24.446Z,103541.28
2023-02-06T18:24:51.390Z,103549.44
2023-02-06T18:27:19.359Z,103556.25
2023-02-06T18:29:50.843Z,103554.34
2023-02-06T18:32:19.371Z,103555.94
2023-02-06T18:34:46.611Z,103547.34
2023-02-06T18:37:13.248Z,103541.94
2023-02-06T18:39:39.826Z,103541.22
2023-02-06T18:42:24.922Z,103542.88
2023-02-06T18:44:51.608Z,103547.81
2023-02-06T18:47:18.925Z,103550.38
2023-02-06T18:49:45.936Z,103545.19
2023-02-06T18:52:12.909Z,103545.00
2023-02-06T18:54:39.705Z,103557.81
2023-02-06T18:57:07.071Z,103558.59
2023-02-06T18:59:34.670Z,103550.06
2023-02-06T19:02:01.631Z,103555.25
2023-02-06T19:04:28.313Z,103554.19
2023-02-06T19:06:54.962Z,103573.38
2023-02-06T19:09:21.652Z,103570.69
2023-02-06T19:11:48.898Z,103573.03
2023-02-06T19:14:18.038Z,103568.84
2023-02-06T19:16:47.420Z,103566.38
2023-02-06T19:19:14.754Z,103567.16
2023-02-06T19:21:42.375Z,103551.59
2023-02-06T19:24:13.003Z,103556.22
2023-02-06T19:26:40.512Z,103557.78
2023-02-06T19:29:07.734Z,103569.56
2023-02-06T19:31:36.032Z,103577.00
2023-02-06T19:34:02.746Z,103573.19
2023-02-06T19:36:30.159Z,103577.31
2023-02-06T19:39:02.451Z,103580.69
2023-02-06T19:41:32.468Z,103584.63
2023-02-06T19:44:03.081Z,103591.34
2023-02-06T19:46:29.814Z,103590.66
2023-02-06T19:48:56.522Z,103594.84
2023-02-06T19:51:29.006Z,103593.97
2023-02-06T19:53:56.282Z,103599.03
2023-02-06T19:56:25.865Z,103588.53
2023-02-06T19:58:57.377Z,103604.25
2023-02-06T20:01:24.968Z,103600.41
2023-02-06T20:03:52.319Z,103596.06
2023-02-06T20:06:19.381Z,103605.50
2023-02-06T20:08:46.583Z,103595.75
2023-02-06T20:11:20.671Z,103587.81
2023-02-06T20:13:48.300Z,103593.00
2023-02-06T20:16:20.859Z,103583.34
2023-02-06T20:19:36.145Z,103602.81
2023-02-06T20:22:04.458Z,103619.31
2023-02-06T20:24:32.478Z,103614.06
2023-02-06T20:27:01.997Z,103611.50
2023-02-06T20:29:33.657Z,103599.78
2023-02-06T20:32:00.881Z,103600.69
2023-02-06T20:34:28.941Z,103597.72
2023-02-06T20:36:56.083Z,103604.72
2023-02-06T20:39:23.317Z,103597.78
2023-02-06T20:41:51.001Z,103605.59
2023-02-06T20:44:19.337Z,103599.53
2023-02-06T20:46:46.663Z,103608.84
2023-02-06T20:49:31.626Z,103601.72
2023-02-06T20:51:58.773Z,103610.84
2023-02-06T20:54:25.924Z,103606.94
2023-02-06T20:56:52.811Z,103605.59
2023-02-06T20:59:21.048Z,103605.44
2023-02-06T21:01:47.759Z,103605.19
2023-02-06T21:04:16.270Z,103604.16
2023-02-06T21:06:43.214Z,103615.00
2023-02-06T21:09:10.594Z,103606.31
2023-02-06T21:11:40.786Z,103614.72
2023-02-06T21:14:07.879Z,103608.00
2023-02-06T21:16:35.929Z,103608.59
2023-02-06T21:19:04.743Z,103604.44
2023-02-06T21:21:32.218Z,103621.38
2023-02-06T21:23:59.117Z,103631.19
2023-02-06T21:26:26.871Z,103628.13
2023-02-06T21:28:53.915Z,103631.84
2023-02-06T21:31:24.200Z,103634.28
2023-02-06T21:33:52.525Z,103636.84
2023-02-06T21:36:21.244Z,103637.34
2023-02-06T21:38:47.997Z,103627.66
2023-02-06T21:41:17.728Z,103643.47
2023-02-06T21:43:45.679Z,103641.78
2023-02-06T21:46:13.317Z,103633.88
2023-02-06T21:48:41.472Z,103627.72
2023-02-06T21:51:09.685Z,103623.19
2023-02-06T21:53:36.661Z,103614.41
2023-02-06T21:56:14.288Z,103604.22
2023-02-06T21:58:40.946Z,103610.41
2023-02-06T22:01:09.004Z,103610.34
2023-02-06T22:03:36.529Z,103613.38
2023-02-06T22:06:14.079Z,103615.44
2023-02-06T22:09:05.222Z,103622.38
2023-02-06T22:11:32.297Z,103630.13
2023-02-06T22:14:01.532Z,103624.75
2023-02-06T22:16:29.443Z,103628.06
2023-02-06T22:18:56.942Z,103625.50
2023-02-06T22:21:26.374Z,103635.63
2023-02-06T22:23:57.161Z,103633.59
2023-02-06T22:26:24.214Z,103643.56
2023-02-06T22:28:51.213Z,103640.66
2023-02-06T22:31:24.307Z,103636.78
2023-02-06T22:33:51.199Z,103639.91
2023-02-06T22:36:21.822Z,103642.41
2023-02-06T22:38:53.730Z,103642.53
2023-02-06T22:41:20.653Z,103638.88
2023-02-06T22:43:49.097Z,103643.38
2023-02-06T22:46:21.640Z,103647.94
2023-02-06T22:48:48.352Z,103644.66
2023-02-06T22:51:15.073Z,103637.00
2023-02-06T22:53:41.771Z,103637.94
2023-02-06T22:56:32.316Z,103634.22
2023-02-06T22:59:16.975Z,103636.22
2023-02-06T23:01:48.141Z,103642.78
2023-02-06T23:04:18.069Z,103651.50
2023-02-06T23:06:45.411Z,103654.75
2023-02-06T23:09:21.178Z,103665.22
2023-02-06T23:11:48.689Z,103659.88
2023-02-06T23:14:16.777Z,103662.50
2023-02-06T23:16:44.061Z,103663.00
2023-02-06T23:19:12.820Z,103663.50
2023-02-06T23:21:42.222Z,103669.72
2023-02-06T23:24:10.293Z,103660.00
2023-02-06T23:26:37.692Z,103667.34
2023-02-06T23:29:07.701Z,103664.72
2023-02-06T23:31:35.574Z,103656.91
2023-02-06T23:34:02.283Z,103657.94
2023-02-06T23:36:29.518Z,103662.88
2023-02-06T23:38:56.538Z,103669.81
2023-02-06T23:41:26.199Z,103671.50
2023-02-06T23:43:55.651Z,103677.84
2023-02-06T23:46:23.677Z,103684.16
2023-02-06T23:48:51.385Z,103680.06
2023-02-06T23:51:19.105Z,103682.09
2023-02-06T23:53:45.753Z,103672.28
2023-02-06T23:56:14.561Z,103679.16
2023-02-06T23:58:41.693Z,103684.34
